Cook, Washington
Current Conditions -  °F | °C
As of 11:53 AM on Saturday 25 Oct 2014 (Local Time) from KDLS Reporting Station
Overcast Overcast  
Wind Chill: 56°   Ceiling: 2000
Heat Index: 56°   Visibility: 10mi
Dew Point: 49°   Wind: 7mph
Humidity: 77%   Direction: 110°ESE
Pressure: 29.56"   Gusts: NA
Location:  45.6752°N, 121.103°W
Report Text: KDLS 251853Z AUTO 11006KT 10SM BKN020 OVC025 13/09 A2956 RMK AO2 SLP011 T01330094
Loading
Personal Weather Stations






























Interactive Weather Map
Tropical Storm Tracking
New forecast layout! Learn more

10-Day Weather Forecast

Advertisements
Track Severe Weather on mobile